< < Back
Terminal Aerodrome Forecast


Current Version              Previous Versions:   1  2  3  4  5  6  7  8  9  

Terminal Aerodrome Forecast

953
FTUS42 KCHS 231000 AAB
TAFSAV
TAF AMD
KSAV 231000Z 2310/2406 25004KT 4SM BR OVC005
      TEMPO 2311/2313 SCT005
     FM231300 34008KT P6SM FEW010
     FM231600 32008KT P6SM FEW040
     FM232100 12008KT P6SM SKC=



Latest METAR

401
SAUS80 KWBC 231400
MTRSAV
METAR KSAV 231353Z 30009KT 8SM BKN007 20/17 A2991 RMK AO2 CIG 006V011
SLP126 T02000167


USA.gov is the U.S. government's official web portal to all federal, state and local government web resources and services.